TAF Text Data
IDs:
Format:
Raw Decoded Include METAR

Data at: 0651 UTC 01 Aug 2021

KTCL 010537Z 0106/0206 00000KT P6SM FEW050 SCT250
  FM011500 VRB04KT P6SM FEW020 SCT045
  PROB30 0117/0120 4SM TSRA BR BKN020CB BKN026
  FM012000 30007KT 6SM SHRA BR VCTS SCT027CB BKN050
  FM020300 VRB04KT P6SM SCT060 BKN070
  PROB30 0203/0206 4SM TSRA BR BKN060CB